createdAt,value
2018-09-22T00:02:21.115Z,2.87
2018-09-22T00:04:49.142Z,2.75
2018-09-22T00:07:16.563Z,2.70
2018-09-22T00:09:43.997Z,2.62
2018-09-22T00:12:11.353Z,2.90
2018-09-22T00:14:38.746Z,3.05
2018-09-22T00:17:06.824Z,2.65
2018-09-22T00:19:34.905Z,2.40
2018-09-22T00:22:02.867Z,2.40
2018-09-22T00:24:30.399Z,2.50
2018-09-22T00:26:58.672Z,2.47
2018-09-22T00:29:26.058Z,2.22
2018-09-22T00:31:53.450Z,2.42
2018-09-22T00:34:20.820Z,2.15
2018-09-22T00:39:19.169Z,2.42
2018-09-22T00:41:47.259Z,2.20
2018-09-22T00:44:15.583Z,2.10
2018-09-22T00:46:43.117Z,2.75
2018-09-22T00:49:15.205Z,1.90
2018-09-22T00:51:42.975Z,2.10
2018-09-22T00:54:10.882Z,1.92
2018-09-22T00:56:38.386Z,2.72
2018-09-22T00:59:10.198Z,2.25
2018-09-22T01:01:37.603Z,2.30
2018-09-22T01:04:05.121Z,2.05
2018-09-22T01:06:33.279Z,2.33
2018-09-22T01:09:07.102Z,2.77
2018-09-22T01:11:35.197Z,2.52
2018-09-22T01:14:02.817Z,3.65
2018-09-22T01:16:30.148Z,2.45
2018-09-22T01:19:02.289Z,2.45
2018-09-22T01:21:30.045Z,2.80
2018-09-22T01:23:57.841Z,3.30
2018-09-22T01:26:25.328Z,2.75
2018-09-22T01:28:52.680Z,3.10
2018-09-22T01:31:20.745Z,2.58
2018-09-22T01:33:48.284Z,2.62
2018-09-22T01:36:16.131Z,3.12
2018-09-22T01:38:43.495Z,3.05
2018-09-22T01:41:10.962Z,2.50
2018-09-22T01:43:38.391Z,2.67
2018-09-22T01:46:05.670Z,2.55
2018-09-22T01:48:33.143Z,2.25
2018-09-22T01:51:01.112Z,2.30
2018-09-22T01:53:28.858Z,2.40
2018-09-22T01:55:56.263Z,2.40
2018-09-22T01:58:24.724Z,2.42
2018-09-22T02:00:52.782Z,2.10
2018-09-22T02:03:20.209Z,2.40
2018-09-22T02:05:48.394Z,2.02
2018-09-22T02:08:16.823Z,4.97
2018-09-22T02:10:44.285Z,3.65
2018-09-22T02:13:15.964Z,2.35
2018-09-22T02:15:43.381Z,3.52
2018-09-22T02:18:10.813Z,2.22
2018-09-22T02:20:38.200Z,2.45
2018-09-22T02:23:06.207Z,2.20
2018-09-22T02:25:33.582Z,2.85
2018-09-22T02:28:07.562Z,2.70
2018-09-22T02:30:35.330Z,2.22
2018-09-22T02:33:07.627Z,2.08
2018-09-22T02:35:35.000Z,2.37
2018-09-22T02:38:03.174Z,2.10
2018-09-22T02:40:30.830Z,2.52
2018-09-22T02:42:58.345Z,2.75
2018-09-22T02:45:25.922Z,2.30
2018-09-22T02:47:58.284Z,3.20
2018-09-22T02:50:29.710Z,2.20
2018-09-22T02:52:57.107Z,2.40
2018-09-22T02:55:24.507Z,2.37
2018-09-22T02:57:51.900Z,3.00
2018-09-22T03:00:19.334Z,2.83
2018-09-22T03:02:47.151Z,3.45
2018-09-22T03:05:14.559Z,3.50
2018-09-22T03:07:42.007Z,3.87
2018-09-22T03:10:13.997Z,3.42
2018-09-22T03:12:41.374Z,3.25
2018-09-22T03:15:09.244Z,3.20
2018-09-22T03:17:36.794Z,3.47
2018-09-22T03:20:04.467Z,4.00
2018-09-22T03:22:31.989Z,3.83
2018-09-22T03:27:37.609Z,3.25
2018-09-22T03:30:05.079Z,4.00
2018-09-22T03:32:32.435Z,3.58
2018-09-22T03:35:00.255Z,2.75
2018-09-22T03:37:28.243Z,2.98
2018-09-22T03:40:00.037Z,2.90
2018-09-22T03:42:27.480Z,4.08
2018-09-22T03:44:56.234Z,2.85
2018-09-22T03:49:51.121Z,2.75
2018-09-22T03:52:19.560Z,2.60
2018-09-22T03:54:47.458Z,3.10
2018-09-22T03:57:15.718Z,3.00
2018-09-22T03:59:43.529Z,3.17
2018-09-22T04:02:10.923Z,3.42
2018-09-22T04:04:39.403Z,2.85
2018-09-22T04:07:07.601Z,2.60
2018-09-22T04:09:35.098Z,2.80
2018-09-22T04:12:03.564Z,2.92
2018-09-22T04:14:30.954Z,2.50
2018-09-22T04:16:58.383Z,3.37
2018-09-22T04:19:26.251Z,3.12
2018-09-22T04:21:58.203Z,2.92
2018-09-22T04:24:26.061Z,2.90
2018-09-22T04:26:53.462Z,2.20
2018-09-22T04:29:21.615Z,2.67
2018-09-22T04:31:49.778Z,3.42
2018-09-22T04:34:17.870Z,4.78
2018-09-22T04:36:45.409Z,2.30
2018-09-22T04:39:13.363Z,2.45
2018-09-22T04:41:42.151Z,3.37
2018-09-22T04:46:37.019Z,2.70
2018-09-22T04:49:04.809Z,3.00
2018-09-22T04:51:36.247Z,2.70
2018-09-22T04:56:31.483Z,3.10
2018-09-22T04:58:59.915Z,2.60
2018-09-22T05:01:28.261Z,2.30
2018-09-22T05:04:00.891Z,3.27
2018-09-22T05:06:37.710Z,2.92
2018-09-22T05:09:06.770Z,2.30
2018-09-22T05:11:34.147Z,2.75
2018-09-22T05:14:02.976Z,2.55
2018-09-22T05:16:32.099Z,2.90
2018-09-22T05:18:59.956Z,3.10
2018-09-22T05:23:56.314Z,2.25
2018-09-22T05:26:23.711Z,3.85
2018-09-22T05:28:51.631Z,2.67
2018-09-22T05:31:19.003Z,2.20
2018-09-22T05:33:46.847Z,2.42
2018-09-22T05:36:14.334Z,2.47
2018-09-22T05:38:42.668Z,2.70
2018-09-22T05:41:10.112Z,2.58
2018-09-22T05:43:37.514Z,2.50
2018-09-22T05:46:05.292Z,1.92
2018-09-22T05:48:33.594Z,2.92
2018-09-22T05:51:01.006Z,2.67
2018-09-22T05:53:35.694Z,1.90
2018-09-22T05:56:03.270Z,2.45
2018-09-22T05:58:31.360Z,2.60
2018-09-22T06:00:59.417Z,2.17
2018-09-22T06:03:27.996Z,2.37
2018-09-22T06:05:55.558Z,2.60
2018-09-22T06:08:28.550Z,2.70
2018-09-22T06:10:56.151Z,2.80
2018-09-22T06:13:23.683Z,2.60
2018-09-22T06:15:51.949Z,2.33
2018-09-22T06:18:23.218Z,2.42
2018-09-22T06:20:54.567Z,2.37
2018-09-22T06:23:22.228Z,2.50
2018-09-22T06:25:49.869Z,2.33
2018-09-22T06:28:19.695Z,2.50
2018-09-22T06:30:49.906Z,2.60
2018-09-22T06:33:18.811Z,2.83
2018-09-22T06:35:46.589Z,2.80
2018-09-22T06:38:15.139Z,2.20
2018-09-22T06:40:48.968Z,2.00
2018-09-22T06:43:16.629Z,2.65
2018-09-22T06:45:45.258Z,2.52
2018-09-22T06:48:12.643Z,2.42
2018-09-22T06:50:40.122Z,2.87
2018-09-22T06:53:08.011Z,2.55
2018-09-22T06:55:35.460Z,2.60
2018-09-22T06:58:08.410Z,2.83
2018-09-22T07:00:36.334Z,3.35
2018-09-22T07:03:07.937Z,2.52
2018-09-22T07:05:36.567Z,2.90
2018-09-22T07:08:03.943Z,4.00
2018-09-22T07:10:35.318Z,2.22
2018-09-22T07:13:02.747Z,2.37
2018-09-22T07:15:30.849Z,2.22
2018-09-22T07:17:58.314Z,2.37
2018-09-22T07:20:26.745Z,2.70
2018-09-22T07:23:03.539Z,2.67
2018-09-22T07:25:31.652Z,2.33
2018-09-22T07:27:59.039Z,2.50
2018-09-22T07:30:26.395Z,2.05
2018-09-22T07:32:53.679Z,3.25
2018-09-22T07:35:21.063Z,2.50
2018-09-22T07:37:48.344Z,2.40
2018-09-22T07:40:15.702Z,4.37
2018-09-22T07:42:43.096Z,2.25
2018-09-22T07:45:10.414Z,3.25
2018-09-22T07:47:37.748Z,2.60
2018-09-22T07:50:05.149Z,2.80
2018-09-22T07:52:32.576Z,2.37
2018-09-22T07:55:00.066Z,2.30
2018-09-22T07:57:27.441Z,2.47
2018-09-22T07:59:54.776Z,3.25
2018-09-22T08:02:22.101Z,3.00
2018-09-22T08:04:49.407Z,2.75
2018-09-22T08:07:16.797Z,2.67
2018-09-22T08:09:44.616Z,2.47
2018-09-22T08:12:11.979Z,2.00
2018-09-22T08:14:39.295Z,2.90
2018-09-22T08:17:06.594Z,2.45
2018-09-22T08:19:33.993Z,2.50
2018-09-22T08:22:01.341Z,2.08
2018-09-22T08:24:29.363Z,4.03
2018-09-22T08:26:56.695Z,2.60
2018-09-22T08:29:23.987Z,2.30
2018-09-22T08:31:51.338Z,1.90
2018-09-22T08:34:18.704Z,2.27
2018-09-22T08:36:46.098Z,2.17
2018-09-22T08:39:13.484Z,2.85
2018-09-22T08:41:41.278Z,3.17
2018-09-22T08:44:08.591Z,2.10
2018-09-22T08:46:36.203Z,2.02
2018-09-22T08:49:03.525Z,2.22
2018-09-22T08:51:30.813Z,2.55
2018-09-22T08:53:58.111Z,2.72
2018-09-22T08:56:25.469Z,2.70
2018-09-22T08:58:52.818Z,2.00
2018-09-22T09:01:20.222Z,1.85
2018-09-22T09:03:47.627Z,2.75
2018-09-22T09:06:14.918Z,1.80
2018-09-22T09:08:42.184Z,2.20
2018-09-22T09:11:09.564Z,2.58
2018-09-22T09:13:36.884Z,2.58
2018-09-22T09:16:04.252Z,2.67
2018-09-22T09:18:31.570Z,2.02
2018-09-22T09:20:58.958Z,2.55
2018-09-22T09:23:26.249Z,2.20
2018-09-22T09:25:54.356Z,2.62
2018-09-22T09:28:21.710Z,2.67
2018-09-22T09:30:49.051Z,1.95
2018-09-22T09:33:16.500Z,2.65
2018-09-22T09:35:43.879Z,2.22
2018-09-22T09:38:11.241Z,2.42
2018-09-22T09:40:38.607Z,3.20
2018-09-22T09:43:05.898Z,2.35
2018-09-22T09:45:33.237Z,2.67
2018-09-22T09:48:00.617Z,2.58
2018-09-22T09:50:28.043Z,3.20
2018-09-22T09:52:55.533Z,2.30
2018-09-22T09:55:22.923Z,2.85
2018-09-22T09:57:50.234Z,2.70
2018-09-22T10:00:21.906Z,2.70
2018-09-22T10:02:49.229Z,2.35
2018-09-22T10:05:16.604Z,2.90
2018-09-22T10:07:44.377Z,2.08
2018-09-22T10:10:11.707Z,2.98
2018-09-22T10:12:39.075Z,2.37
2018-09-22T10:15:06.428Z,2.10
2018-09-22T10:17:33.829Z,2.25
2018-09-22T10:20:01.268Z,3.35
2018-09-22T10:22:29.558Z,1.92
2018-09-22T10:24:58.342Z,3.02
2018-09-22T10:27:29.777Z,2.45
2018-09-22T10:29:57.795Z,3.10
2018-09-22T10:32:25.202Z,2.55
2018-09-22T10:34:52.590Z,2.50
2018-09-22T10:37:20.929Z,2.83
2018-09-22T10:39:48.659Z,1.92
2018-09-22T10:42:16.688Z,2.00
2018-09-22T10:44:44.104Z,2.10
2018-09-22T10:47:15.742Z,2.05
2018-09-22T10:49:43.818Z,2.12
2018-09-22T10:52:11.358Z,2.65
2018-09-22T10:54:38.907Z,2.25
2018-09-22T10:57:07.191Z,2.30
2018-09-22T11:02:02.007Z,2.27
2018-09-22T11:04:29.773Z,1.80
2018-09-22T11:06:57.327Z,2.20
2018-09-22T11:09:25.754Z,1.80
2018-09-22T11:11:53.101Z,1.95
2018-09-22T11:14:20.498Z,1.60
2018-09-22T11:16:48.817Z,2.25
2018-09-22T11:19:16.643Z,1.70
2018-09-22T11:21:44.034Z,1.92
2018-09-22T11:24:11.374Z,1.72
2018-09-22T11:26:38.762Z,1.65
2018-09-22T11:29:06.282Z,1.50
2018-09-22T11:31:34.385Z,1.22
2018-09-22T11:34:06.203Z,1.87
2018-09-22T11:36:33.630Z,1.75
2018-09-22T11:39:01.031Z,1.80
2018-09-22T11:41:28.446Z,1.87
2018-09-22T11:43:55.971Z,1.62
2018-09-22T11:46:27.722Z,1.25
2018-09-22T11:48:55.163Z,1.42
2018-09-22T11:51:23.023Z,1.30
2018-09-22T11:56:18.271Z,1.62
2018-09-22T11:58:45.598Z,2.20
2018-09-22T12:01:13.727Z,1.50
2018-09-22T12:03:41.172Z,1.70
2018-09-22T12:06:08.595Z,1.40
2018-09-22T12:08:35.887Z,2.00
2018-09-22T12:11:03.296Z,1.60
2018-09-22T12:13:31.387Z,1.13
2018-09-22T12:15:58.857Z,1.80
2018-09-22T12:18:30.298Z,2.20
2018-09-22T12:20:57.673Z,1.90
2018-09-22T12:23:24.980Z,1.37
2018-09-22T12:25:52.314Z,1.52
2018-09-22T12:28:19.631Z,1.70
2018-09-22T12:30:46.932Z,1.50
2018-09-22T12:33:14.291Z,2.60
2018-09-22T12:35:41.638Z,1.60
2018-09-22T12:38:09.011Z,1.65
2018-09-22T12:40:36.285Z,1.72
2018-09-22T12:43:03.657Z,1.70
2018-09-22T12:45:31.106Z,1.70
2018-09-22T12:47:58.491Z,1.60
2018-09-22T12:50:25.800Z,1.85
2018-09-22T12:52:53.105Z,1.50
2018-09-22T12:55:20.392Z,1.35
2018-09-22T12:57:47.706Z,1.47
2018-09-22T13:00:15.033Z,1.47
2018-09-22T13:02:42.357Z,2.05
2018-09-22T13:05:09.769Z,1.40
2018-09-22T13:07:37.090Z,1.72
2018-09-22T13:10:04.459Z,1.65
2018-09-22T13:12:31.839Z,1.85
2018-09-22T13:14:59.548Z,1.80
2018-09-22T13:17:26.871Z,1.67
2018-09-22T13:19:54.232Z,1.72
2018-09-22T13:22:21.566Z,1.80
2018-09-22T13:24:49.041Z,1.47
2018-09-22T13:27:16.340Z,1.50
2018-09-22T13:29:43.644Z,2.25
2018-09-22T13:32:11.150Z,1.80
2018-09-22T13:34:38.459Z,1.32
2018-09-22T13:37:06.621Z,1.70
2018-09-22T13:39:33.929Z,1.75
2018-09-22T13:42:01.592Z,1.70
2018-09-22T13:44:28.935Z,1.35
2018-09-22T13:46:56.228Z,1.70
2018-09-22T13:49:23.592Z,1.40
2018-09-22T13:51:50.901Z,1.55
2018-09-22T13:54:18.222Z,1.40
2018-09-22T13:56:45.498Z,1.50
2018-09-22T13:59:12.819Z,1.77
2018-09-22T14:01:40.123Z,1.45
2018-09-22T14:04:07.439Z,1.60
2018-09-22T14:06:34.725Z,1.70
2018-09-22T14:09:02.232Z,1.95
2018-09-22T14:11:29.595Z,1.70
2018-09-22T14:13:56.992Z,1.77
2018-09-22T14:16:24.574Z,1.80
2018-09-22T14:18:51.986Z,1.52
2018-09-22T14:21:19.366Z,1.80
2018-09-22T14:23:47.135Z,1.60
2018-09-22T14:26:14.466Z,1.57
2018-09-22T14:28:41.835Z,1.55
2018-09-22T14:31:09.253Z,1.65
2018-09-22T14:33:36.867Z,2.42
2018-09-22T14:36:04.376Z,1.42
2018-09-22T14:38:31.776Z,2.47
2018-09-22T14:40:59.084Z,1.52
2018-09-22T14:43:26.394Z,1.90
2018-09-22T14:45:53.683Z,1.95
2018-09-22T14:48:20.972Z,2.17
2018-09-22T14:50:50.487Z,2.10
2018-09-22T14:53:17.866Z,2.15
2018-09-22T14:55:45.135Z,2.50
2018-09-22T14:58:12.439Z,2.02
2018-09-22T15:00:39.747Z,2.05
2018-09-22T15:03:07.308Z,2.05
2018-09-22T15:05:34.668Z,2.02
2018-09-22T15:08:02.011Z,1.55
2018-09-22T15:10:29.343Z,2.35
2018-09-22T15:12:56.682Z,1.82
2018-09-22T15:15:24.067Z,2.55
2018-09-22T15:17:51.406Z,2.00
2018-09-22T15:20:18.968Z,2.05
2018-09-22T15:22:46.295Z,2.42
2018-09-22T15:25:13.577Z,2.08
2018-09-22T15:27:40.904Z,1.82
2018-09-22T15:30:08.283Z,2.45
2018-09-22T15:32:35.850Z,2.10
2018-09-22T15:35:03.175Z,2.00
2018-09-22T15:37:30.485Z,1.37
2018-09-22T15:39:57.812Z,2.22
2018-09-22T15:42:25.150Z,1.57
2018-09-22T15:44:52.442Z,1.62
2018-09-22T15:47:19.815Z,1.50
2018-09-22T15:49:47.111Z,2.08
2018-09-22T15:52:14.491Z,1.70
2018-09-22T15:54:41.784Z,1.70
2018-09-22T15:57:09.082Z,1.35
2018-09-22T15:59:36.538Z,1.25
2018-09-22T16:02:03.872Z,1.67
2018-09-22T16:04:31.178Z,1.90
2018-09-22T16:06:58.509Z,1.67
2018-09-22T16:09:25.827Z,1.47
2018-09-22T16:11:53.154Z,1.62
2018-09-22T16:14:20.466Z,1.87
2018-09-22T16:16:47.783Z,1.90
2018-09-22T16:19:15.451Z,2.25
2018-09-22T16:21:42.827Z,1.80
2018-09-22T16:24:10.205Z,2.20
2018-09-22T16:26:37.485Z,1.80
2018-09-22T16:29:04.809Z,2.20
2018-09-22T16:31:32.201Z,1.85
2018-09-22T16:33:59.488Z,2.17
2018-09-22T16:36:26.784Z,2.10
2018-09-22T16:38:54.087Z,3.40
2018-09-22T16:41:21.468Z,3.25
2018-09-22T16:43:48.789Z,3.20
2018-09-22T16:46:16.307Z,2.17
2018-09-22T16:48:43.706Z,2.65
2018-09-22T16:51:11.101Z,2.20
2018-09-22T16:53:38.401Z,2.22
2018-09-22T16:56:05.718Z,2.52
2018-09-22T16:58:33.032Z,2.30
2018-09-22T17:01:00.344Z,2.30
2018-09-22T17:03:27.642Z,3.00
2018-09-22T17:05:55.023Z,2.83
2018-09-22T17:08:22.279Z,2.58
2018-09-22T17:10:49.555Z,2.70
2018-09-22T17:13:16.928Z,2.92
2018-09-22T17:15:44.223Z,2.60
2018-09-22T17:18:11.529Z,2.90
2018-09-22T17:20:38.946Z,2.72
2018-09-22T17:23:06.280Z,3.33
2018-09-22T17:25:33.587Z,3.00
2018-09-22T17:28:00.945Z,2.92
2018-09-22T17:30:28.263Z,2.55
2018-09-22T17:32:55.575Z,3.00
2018-09-22T17:35:22.861Z,3.02
2018-09-22T17:37:50.261Z,2.92
2018-09-22T17:40:17.579Z,3.70
2018-09-22T17:42:44.989Z,3.90
2018-09-22T17:45:12.363Z,2.80
2018-09-22T17:47:39.719Z,2.95
2018-09-22T17:50:06.994Z,2.62
2018-09-22T17:52:34.328Z,2.98
2018-09-22T17:55:01.602Z,3.15
2018-09-22T17:57:28.922Z,3.10
2018-09-22T17:59:56.246Z,2.92
2018-09-22T18:02:23.913Z,3.25
2018-09-22T18:04:51.208Z,3.20
2018-09-22T18:07:18.555Z,2.58
2018-09-22T18:09:45.920Z,3.33
2018-09-22T18:12:13.205Z,3.45
2018-09-22T18:14:40.823Z,2.60
2018-09-22T18:17:08.191Z,2.90
2018-09-22T18:19:35.541Z,3.08
2018-09-22T18:22:02.838Z,2.72
2018-09-22T18:24:30.123Z,2.55
2018-09-22T18:26:57.434Z,2.85
2018-09-22T18:29:24.970Z,2.85
2018-09-22T18:31:52.255Z,2.70
2018-09-22T18:34:19.535Z,2.35
2018-09-22T18:36:47.782Z,3.22
2018-09-22T18:39:15.090Z,2.77
2018-09-22T18:41:42.442Z,2.65
2018-09-22T18:44:09.874Z,2.58
2018-09-22T18:46:37.226Z,2.75
2018-09-22T18:49:04.604Z,2.77
2018-09-22T18:51:32.049Z,2.33
2018-09-22T18:53:59.400Z,2.98
2018-09-22T18:56:27.072Z,2.67
2018-09-22T18:58:54.437Z,3.33
2018-09-22T19:01:21.742Z,2.65
2018-09-22T19:03:49.124Z,3.08
2018-09-22T19:06:16.483Z,3.15
2018-09-22T19:08:43.840Z,3.20
2018-09-22T19:11:11.288Z,3.00
2018-09-22T19:13:45.267Z,2.98
2018-09-22T19:16:17.895Z,3.10
2018-09-22T19:18:49.622Z,3.02
2018-09-22T19:22:20.107Z,3.45
2018-09-22T19:24:55.367Z,3.55
2018-09-22T19:27:28.990Z,4.03
2018-09-22T19:30:01.143Z,2.85
2018-09-22T19:32:33.116Z,3.00
2018-09-22T19:35:07.101Z,3.30
2018-09-22T19:38:09.625Z,3.58
2018-09-22T19:40:40.259Z,3.27
2018-09-22T19:43:26.869Z,3.67
2018-09-22T19:45:57.560Z,3.33
2018-09-22T19:49:01.063Z,4.12
2018-09-22T19:51:31.986Z,3.92
2018-09-22T19:54:00.215Z,3.72
2018-09-22T19:56:27.516Z,3.90
2018-09-22T19:58:54.918Z,4.05
2018-09-22T20:01:22.210Z,4.03
2018-09-22T20:03:49.542Z,3.45
2018-09-22T20:06:16.872Z,3.52
2018-09-22T20:08:44.246Z,4.03
2018-09-22T20:11:11.570Z,4.28
2018-09-22T20:13:38.946Z,3.50
2018-09-22T20:16:06.301Z,3.87
2018-09-22T20:18:34.120Z,3.77
2018-09-22T20:21:01.464Z,3.55
2018-09-22T20:23:28.842Z,3.60
2018-09-22T20:25:56.686Z,3.60
2018-09-22T20:28:24.009Z,3.37
2018-09-22T20:30:51.383Z,3.50
2018-09-22T20:33:18.858Z,3.90
2018-09-22T20:35:46.211Z,3.90
2018-09-22T20:38:13.487Z,3.62
2018-09-22T20:40:40.814Z,3.70
2018-09-22T20:43:08.160Z,3.50
2018-09-22T20:45:35.580Z,3.60
2018-09-22T20:48:02.880Z,3.50
2018-09-22T20:50:30.237Z,4.05
2018-09-22T20:52:57.636Z,4.42
2018-09-22T20:55:24.994Z,4.15
2018-09-22T20:57:52.669Z,4.50
2018-09-22T21:00:20.708Z,4.50
2018-09-22T21:02:48.014Z,4.30
2018-09-22T21:05:15.380Z,4.00
2018-09-22T21:07:42.742Z,5.03
2018-09-22T21:10:10.083Z,5.10
2018-09-22T21:12:37.514Z,5.20
2018-09-22T21:15:04.983Z,5.05
2018-09-22T21:17:32.358Z,4.80
2018-09-22T21:19:59.689Z,5.25
2018-09-22T21:22:27.159Z,5.62
2018-09-22T21:24:58.334Z,5.17
2018-09-22T21:27:25.728Z,5.90
2018-09-22T21:29:53.130Z,5.42
2018-09-22T21:32:20.532Z,7.25
2018-09-22T21:34:47.898Z,7.20
2018-09-22T21:37:15.236Z,6.33
2018-09-22T21:39:42.770Z,7.10
2018-09-22T21:42:10.148Z,7.58
2018-09-22T21:44:37.463Z,8.30
2018-09-22T21:47:04.870Z,9.03
2018-09-22T21:49:32.499Z,7.65
2018-09-22T21:51:59.878Z,7.83
2018-09-22T21:54:27.214Z,9.83
2018-09-22T21:56:54.579Z,8.00
2018-09-22T21:59:21.910Z,9.25
2018-09-22T22:01:49.232Z,9.30
2018-09-22T22:04:16.591Z,8.78
2018-09-22T22:06:44.352Z,8.45
2018-09-22T22:09:13.145Z,10.15
2018-09-22T22:11:41.046Z,9.70
2018-09-22T22:14:09.207Z,10.88
2018-09-22T22:16:36.917Z,9.65
2018-09-22T22:19:04.311Z,10.08
2018-09-22T22:21:31.635Z,10.08
2018-09-22T22:23:58.996Z,10.08
2018-09-22T22:26:26.438Z,10.88
2018-09-22T22:28:53.841Z,10.28
2018-09-22T22:31:21.314Z,10.20
2018-09-22T22:33:50.239Z,10.25
2018-09-22T22:36:17.639Z,11.48
2018-09-22T22:38:45.367Z,12.23
2018-09-22T22:41:12.845Z,10.58
2018-09-22T22:43:40.367Z,11.33
2018-09-22T22:46:07.755Z,12.53
2018-09-22T22:48:35.064Z,12.73
2018-09-22T22:51:02.720Z,12.13
2018-09-22T22:53:30.163Z,11.88
2018-09-22T22:55:57.513Z,11.88
2018-09-22T22:58:24.838Z,11.80
2018-09-22T23:00:52.215Z,11.80
2018-09-22T23:03:19.518Z,13.00
2018-09-22T23:05:47.073Z,12.95
2018-09-22T23:08:14.427Z,12.90
2018-09-22T23:10:41.842Z,12.88
2018-09-22T23:13:09.203Z,13.13
2018-09-22T23:15:36.561Z,11.83
2018-09-22T23:18:04.318Z,12.35
2018-09-22T23:20:31.670Z,11.50
2018-09-22T23:22:59.004Z,12.58
2018-09-22T23:25:26.342Z,11.88
2018-09-22T23:27:53.757Z,12.23
2018-09-22T23:30:21.137Z,11.12
2018-09-22T23:32:48.493Z,10.05
2018-09-22T23:35:15.823Z,10.70
2018-09-22T23:37:43.252Z,10.60
2018-09-22T23:40:10.566Z,9.88
2018-09-22T23:42:38.103Z,10.20
2018-09-22T23:45:05.532Z,11.30
2018-09-22T23:47:32.854Z,10.28
2018-09-22T23:50:00.211Z,9.50
2018-09-22T23:52:27.538Z,10.08
2018-09-22T23:54:54.833Z,10.80
2018-09-22T23:57:22.196Z,10.13
2018-09-22T23:59:49.504Z,10.15
